CW0506 Weather Reports


Display with metric or nautical units.
time (UTC)temp
F
wind
direction
speed
MPH
gust
MPH
rain 1hr
in
rain 24hr
in
rain mn
in
humidity
%
barometer
mb
20181215192812 48 322 0.0 2.0 0.00 0.06 0.06 94 1019.8
20181215185812 49 322 0.0 0.0 0.00 0.06 0.06 94 1020.4
20181215182812 49 322 0.0 1.0 0.00 0.06 0.06 94 1020.2
20181215175812 49 201 0.0 0.0 0.00 0.06 0.06 97 1020.3
20181215172814 48 201 0.0 2.0 0.00 0.06 0.06 98 1020.4
20181215165812 47 201 0.0 2.0 0.00 0.06 0.06 98 1020.6
20181215162813 46 243 2.0 2.0 0.00 0.06 0.06 99 1021.2
20181215155813 45 227 0.0 1.0 0.00 0.06 0.06 99 1021.7
20181215152812 44 227 0.0 0.0 0.00 0.06 0.06 99 1022.4
20181215145812 42 227 0.0 1.0 0.00 0.07 0.06 98 1022.6
20181215142814 41 227 0.0 2.0 0.00 0.07 0.06 98 1022.8
20181215135814 41 336 1.0 1.0 0.00 0.07 0.06 98 1022.7
20181215132815 41 342 0.0 2.0 0.00 0.07 0.06 98 1022.4
20181215125812 40 342 0.0 1.0 0.00 0.07 0.06 98 1022.3
20181215122812 40 342 0.0 0.0 0.00 0.07 0.06 98 1022.5
20181215115812 41 342 0.0 0.0 0.00 0.07 0.06 97 1022.0
20181215112813 41 342 0.0 0.0 0.01 0.07 0.06 97 1022.3
20181215105812 41 342 0.0 0.0 0.01 0.07 0.06 97 1022.1
20181215102812 41 342 0.0 1.0 0.02 0.06 0.05 97 1021.9
20181215095813 41 342 0.0 0.0 0.04 0.06 0.05 96 1021.7
20181215092813 42 342 0.0 2.0 0.03 0.04 0.03 96 1022.0
20181215085813 42 306 0.0 2.0 0.01 0.02 0.01 96 1022.2
20181215082813 42 286 0.0 0.0 0.00 0.01 0.00 96 1022.5
20181215075813 42 286 0.0 1.0 0.00 0.01 0.00 96 1022.7
20181215072813 42 271 0.0 3.0 0.00 0.01 0.00 95 1022.8
20181215065813 42 250 0.0 6.0 0.00 0.01 0.00 97 1023.1
20181215062813 38 169 0.0 2.0 0.00 0.01 0.00 93 1023.2
20181215055813 38 293 0.0 1.0 0.00 0.01 0.00 92 1023.5
20181215052813 38 293 0.0 2.0 0.00 0.01 0.00 91 1023.7
20181215045813 38 292 0.0 0.0 0.00 0.01 0.00 91 1024.2
20181215042813 37 292 0.0 1.0 0.00 0.01 0.01 91 1024.4
20181215035813 37 292 1.0 2.0 0.00 0.01 0.01 91 1024.6
20181215032813 37 292 0.0 2.0 0.00 0.01 0.01 91 1025.3
20181215025813 37 293 0.0 0.0 0.00 0.01 0.01 90 1025.4
20181215022813 37 293 0.0 1.0 0.00 0.01 0.01 90 1025.6
20181215015813 37 293 0.0 2.0 0.00 0.01 0.01 90 1025.8
20181215012815 37 258 0.0 1.0 0.00 0.01 0.01 90 1026.1
20181215005816 37 258 0.0 0.0 0.00 0.01 0.01 90 1026.3
20181215002813 37 258 0.0 0.0 0.00 0.01 0.01 89 1026.8
20181214235813 37 258 0.0 0.0 0.00 0.01 0.01 89 1027.2
20181214232813 37 258 0.0 0.0 0.00 0.01 0.01 88 1027.4
20181214225815 38 258 0.0 0.0 0.00 0.01 0.01 88 1027.7
20181214222813 38 258 0.0 0.0 0.00 0.01 0.01 87 1028.2
20181214215813 39 258 0.0 2.0 0.00 0.01 0.01 86 1028.7
20181214212813 39 202 0.0 1.0 0.00 0.01 0.01 84 1028.6
20181214205813 40 196 0.0 1.0 0.00 0.01 0.01 82 1028.6
20181214202814 40 196 0.0 0.0 0.00 0.01 0.01 81 1029.0
20181214195814 40 196 0.0 1.0 0.00 0.01 0.01 80 1029.1